sensor_id;sensor_type;location;lat;lon;timestamp;temperature;humidity
47604;DHT22;33326;51.116;6.900;2023-03-31T00:02:41;12.10;99.90
47604;DHT22;33326;51.116;6.900;2023-03-31T00:07:43;12.20;99.90
47604;DHT22;33326;51.116;6.900;2023-03-31T00:12:46;12.20;99.90
47604;DHT22;33326;51.116;6.900;2023-03-31T00:17:49;12.30;99.90
47604;DHT22;33326;51.116;6.900;2023-03-31T00:22:51;12.30;99.90
47604;DHT22;33326;51.116;6.900;2023-03-31T00:27:54;12.30;99.90
47604;DHT22;33326;51.116;6.900;2023-03-31T00:32:57;12.20;99.90
47604;DHT22;33326;51.116;6.900;2023-03-31T00:38:00;11.90;99.90
47604;DHT22;33326;51.116;6.900;2023-03-31T00:43:01;11.70;99.90
47604;DHT22;33326;51.116;6.900;2023-03-31T00:48:06;11.70;99.90
47604;DHT22;33326;51.116;6.900;2023-03-31T00:53:12;11.60;99.90
47604;DHT22;33326;51.116;6.900;2023-03-31T00:58:16;11.60;99.90
47604;DHT22;33326;51.116;6.900;2023-03-31T01:03:22;11.70;99.90
47604;DHT22;33326;51.116;6.900;2023-03-31T01:08:26;11.70;99.90
47604;DHT22;33326;51.116;6.900;2023-03-31T01:13:29;11.80;99.90
47604;DHT22;33326;51.116;6.900;2023-03-31T01:18:33;11.80;99.90
47604;DHT22;33326;51.116;6.900;2023-03-31T01:23:57;11.80;99.90
47604;DHT22;33326;51.116;6.900;2023-03-31T01:29:19;11.90;99.90
47604;DHT22;33326;51.116;6.900;2023-03-31T01:34:57;12.00;99.90
47604;DHT22;33326;51.116;6.900;2023-03-31T01:46:00;12.00;99.90
47604;DHT22;33326;51.116;6.900;2023-03-31T01:51:07;12.00;99.90
47604;DHT22;33326;51.116;6.900;2023-03-31T01:56:16;12.00;99.90
47604;DHT22;33326;51.116;6.900;2023-03-31T02:01:24;11.90;99.90
47604;DHT22;33326;51.116;6.900;2023-03-31T02:06:32;11.90;99.90
47604;DHT22;33326;51.116;6.900;2023-03-31T02:11:37;11.80;99.90
47604;DHT22;33326;51.116;6.900;2023-03-31T02:16:43;11.80;99.90
47604;DHT22;33326;51.116;6.900;2023-03-31T02:21:50;11.90;99.90
47604;DHT22;33326;51.116;6.900;2023-03-31T02:26:55;11.90;99.90
47604;DHT22;33326;51.116;6.900;2023-03-31T02:32:06;12.00;99.90
47604;DHT22;33326;51.116;6.900;2023-03-31T02:37:09;12.00;99.90
47604;DHT22;33326;51.116;6.900;2023-03-31T02:42:12;12.00;99.90
47604;DHT22;33326;51.116;6.900;2023-03-31T02:47:18;12.10;99.90
47604;DHT22;33326;51.116;6.900;2023-03-31T02:52:39;12.00;99.90
47604;DHT22;33326;51.116;6.900;2023-03-31T02:58:10;12.10;99.90
47604;DHT22;33326;51.116;6.900;2023-03-31T03:03:27;12.10;99.90
47604;DHT22;33326;51.116;6.900;2023-03-31T03:08:36;12.00;99.90
47604;DHT22;33326;51.116;6.900;2023-03-31T03:13:45;12.00;99.90
47604;DHT22;33326;51.116;6.900;2023-03-31T03:18:59;12.00;99.90
47604;DHT22;33326;51.116;6.900;2023-03-31T03:24:01;12.00;99.90
47604;DHT22;33326;51.116;6.900;2023-03-31T03:29:03;11.90;99.90
47604;DHT22;33326;51.116;6.900;2023-03-31T03:34:07;11.90;99.90
47604;DHT22;33326;51.116;6.900;2023-03-31T03:39:10;12.00;99.90
47604;DHT22;33326;51.116;6.900;2023-03-31T03:44:11;11.90;99.90
47604;DHT22;33326;51.116;6.900;2023-03-31T03:49:15;11.90;99.90
47604;DHT22;33326;51.116;6.900;2023-03-31T03:54:17;11.90;99.90
47604;DHT22;33326;51.116;6.900;2023-03-31T03:59:19;11.90;99.90
47604;DHT22;33326;51.116;6.900;2023-03-31T04:04:22;11.80;99.90
47604;DHT22;33326;51.116;6.900;2023-03-31T04:09:24;11.90;99.90
47604;DHT22;33326;51.116;6.900;2023-03-31T04:14:27;11.80;99.90
47604;DHT22;33326;51.116;6.900;2023-03-31T04:19:30;11.80;99.90
47604;DHT22;33326;51.116;6.900;2023-03-31T04:24:32;11.80;99.90
47604;DHT22;33326;51.116;6.900;2023-03-31T04:29:34;11.90;99.90
47604;DHT22;33326;51.116;6.900;2023-03-31T04:34:38;11.80;99.90
47604;DHT22;33326;51.116;6.900;2023-03-31T04:39:39;11.80;99.90
47604;DHT22;33326;51.116;6.900;2023-03-31T04:44:41;11.80;99.90
47604;DHT22;33326;51.116;6.900;2023-03-31T04:49:44;11.80;99.90
47604;DHT22;33326;51.116;6.900;2023-03-31T04:54:46;11.80;99.90
47604;DHT22;33326;51.116;6.900;2023-03-31T04:59:48;11.80;99.90
47604;DHT22;33326;51.116;6.900;2023-03-31T05:04:51;11.70;99.90
47604;DHT22;33326;51.116;6.900;2023-03-31T05:09:53;11.70;99.90
47604;DHT22;33326;51.116;6.900;2023-03-31T05:14:55;11.60;99.90
47604;DHT22;33326;51.116;6.900;2023-03-31T05:19:58;11.60;99.90
47604;DHT22;33326;51.116;6.900;2023-03-31T05:25:01;11.60;99.90
47604;DHT22;33326;51.116;6.900;2023-03-31T05:30:04;11.60;99.90
47604;DHT22;33326;51.116;6.900;2023-03-31T05:35:09;11.60;99.90
47604;DHT22;33326;51.116;6.900;2023-03-31T05:40:11;11.60;99.90
47604;DHT22;33326;51.116;6.900;2023-03-31T05:45:13;11.70;99.90
47604;DHT22;33326;51.116;6.900;2023-03-31T05:50:17;11.70;99.90
47604;DHT22;33326;51.116;6.900;2023-03-31T05:55:19;11.70;99.90
47604;DHT22;33326;51.116;6.900;2023-03-31T06:00:21;11.80;99.90
47604;DHT22;33326;51.116;6.900;2023-03-31T06:05:25;11.70;99.90
47604;DHT22;33326;51.116;6.900;2023-03-31T06:10:27;11.70;99.90
47604;DHT22;33326;51.116;6.900;2023-03-31T06:15:29;11.70;99.90
47604;DHT22;33326;51.116;6.900;2023-03-31T06:20:32;11.70;99.90
47604;DHT22;33326;51.116;6.900;2023-03-31T06:25:37;11.70;99.90
47604;DHT22;33326;51.116;6.900;2023-03-31T06:30:39;11.60;99.90
47604;DHT22;33326;51.116;6.900;2023-03-31T06:35:42;11.50;99.90
47604;DHT22;33326;51.116;6.900;2023-03-31T06:40:44;11.50;99.90
47604;DHT22;33326;51.116;6.900;2023-03-31T06:45:46;11.50;99.90
47604;DHT22;33326;51.116;6.900;2023-03-31T06:50:51;11.30;99.90
47604;DHT22;33326;51.116;6.900;2023-03-31T06:55:53;11.30;99.90
47604;DHT22;33326;51.116;6.900;2023-03-31T07:00:55;11.30;99.90
47604;DHT22;33326;51.116;6.900;2023-03-31T07:05:58;11.30;99.90
47604;DHT22;33326;51.116;6.900;2023-03-31T07:11:01;11.30;99.90
47604;DHT22;33326;51.116;6.900;2023-03-31T07:16:03;11.40;99.90
47604;DHT22;33326;51.116;6.900;2023-03-31T07:21:08;11.40;99.90
47604;DHT22;33326;51.116;6.900;2023-03-31T07:26:09;11.60;99.90
47604;DHT22;33326;51.116;6.900;2023-03-31T07:31:13;11.60;99.90
47604;DHT22;33326;51.116;6.900;2023-03-31T07:36:16;11.70;99.90
47604;DHT22;33326;51.116;6.900;2023-03-31T07:41:20;11.80;99.90
47604;DHT22;33326;51.116;6.900;2023-03-31T07:46:23;12.00;99.90
47604;DHT22;33326;51.116;6.900;2023-03-31T07:51:27;12.00;99.90
47604;DHT22;33326;51.116;6.900;2023-03-31T07:56:29;12.20;99.90
47604;DHT22;33326;51.116;6.900;2023-03-31T08:01:31;12.40;99.90
47604;DHT22;33326;51.116;6.900;2023-03-31T08:06:34;12.60;99.90
47604;DHT22;33326;51.116;6.900;2023-03-31T08:11:36;12.90;99.90
47604;DHT22;33326;51.116;6.900;2023-03-31T08:16:38;13.10;99.90
47604;DHT22;33326;51.116;6.900;2023-03-31T08:21:41;13.20;99.90
47604;DHT22;33326;51.116;6.900;2023-03-31T08:26:43;13.20;99.90
47604;DHT22;33326;51.116;6.900;2023-03-31T08:31:45;13.10;99.90
47604;DHT22;33326;51.116;6.900;2023-03-31T08:36:49;12.80;99.90
47604;DHT22;33326;51.116;6.900;2023-03-31T08:41:55;12.60;99.90
47604;DHT22;33326;51.116;6.900;2023-03-31T08:46:59;12.60;99.90
47604;DHT22;33326;51.116;6.900;2023-03-31T08:52:08;12.60;99.90
47604;DHT22;33326;51.116;6.900;2023-03-31T08:57:16;12.80;99.90
47604;DHT22;33326;51.116;6.900;2023-03-31T09:02:27;13.00;99.90
47604;DHT22;33326;51.116;6.900;2023-03-31T09:07:35;13.50;99.90
47604;DHT22;33326;51.116;6.900;2023-03-31T09:12:47;13.80;99.90
47604;DHT22;33326;51.116;6.900;2023-03-31T09:17:52;14.20;99.90
47604;DHT22;33326;51.116;6.900;2023-03-31T09:23:01;14.30;99.90
47604;DHT22;33326;51.116;6.900;2023-03-31T09:28:13;14.30;99.90
47604;DHT22;33326;51.116;6.900;2023-03-31T09:33:24;14.30;99.90
47604;DHT22;33326;51.116;6.900;2023-03-31T09:38:29;14.50;99.90
47604;DHT22;33326;51.116;6.900;2023-03-31T09:43:32;14.60;99.90
47604;DHT22;33326;51.116;6.900;2023-03-31T09:48:37;14.80;99.90
47604;DHT22;33326;51.116;6.900;2023-03-31T09:53:46;14.90;99.90
47604;DHT22;33326;51.116;6.900;2023-03-31T09:58:49;14.90;99.90
47604;DHT22;33326;51.116;6.900;2023-03-31T10:03:52;14.80;99.90
47604;DHT22;33326;51.116;6.900;2023-03-31T10:08:57;14.60;99.90
47604;DHT22;33326;51.116;6.900;2023-03-31T10:14:02;14.60;99.90
47604;DHT22;33326;51.116;6.900;2023-03-31T10:19:12;14.30;99.90
47604;DHT22;33326;51.116;6.900;2023-03-31T10:24:18;14.40;99.90
47604;DHT22;33326;51.116;6.900;2023-03-31T10:29:25;14.30;99.90
47604;DHT22;33326;51.116;6.900;2023-03-31T10:34:29;14.70;99.90
47604;DHT22;33326;51.116;6.900;2023-03-31T10:39:33;15.00;99.90
47604;DHT22;33326;51.116;6.900;2023-03-31T10:44:37;15.60;99.90
47604;DHT22;33326;51.116;6.900;2023-03-31T10:49:42;16.00;99.90
47604;DHT22;33326;51.116;6.900;2023-03-31T10:54:53;15.90;99.90
47604;DHT22;33326;51.116;6.900;2023-03-31T11:00:14;15.70;99.90
47604;DHT22;33326;51.116;6.900;2023-03-31T11:05:22;15.20;99.90
47604;DHT22;33326;51.116;6.900;2023-03-31T11:10:41;13.70;99.90
47604;DHT22;33326;51.116;6.900;2023-03-31T11:15:52;12.70;99.90
47604;DHT22;33326;51.116;6.900;2023-03-31T11:21:02;12.40;99.90
47604;DHT22;33326;51.116;6.900;2023-03-31T11:26:10;11.80;99.90
47604;DHT22;33326;51.116;6.900;2023-03-31T11:31:24;11.30;99.90
47604;DHT22;33326;51.116;6.900;2023-03-31T11:36:37;11.30;99.90
47604;DHT22;33326;51.116;6.900;2023-03-31T11:41:49;11.50;99.90
47604;DHT22;33326;51.116;6.900;2023-03-31T11:46:54;11.70;99.90
47604;DHT22;33326;51.116;6.900;2023-03-31T11:52:02;12.10;99.90
47604;DHT22;33326;51.116;6.900;2023-03-31T11:57:09;12.40;99.90
47604;DHT22;33326;51.116;6.900;2023-03-31T12:02:16;12.50;99.90
47604;DHT22;33326;51.116;6.900;2023-03-31T12:07:23;12.70;99.90
47604;DHT22;33326;51.116;6.900;2023-03-31T12:12:29;13.10;99.90
47604;DHT22;33326;51.116;6.900;2023-03-31T12:17:32;13.30;99.90
47604;DHT22;33326;51.116;6.900;2023-03-31T12:22:39;13.40;99.90
47604;DHT22;33326;51.116;6.900;2023-03-31T12:27:45;13.60;99.90
47604;DHT22;33326;51.116;6.900;2023-03-31T12:32:53;13.80;99.90
47604;DHT22;33326;51.116;6.900;2023-03-31T12:38:06;14.00;99.90
47604;DHT22;33326;51.116;6.900;2023-03-31T12:49:11;14.60;99.90
47604;DHT22;33326;51.116;6.900;2023-03-31T12:54:39;15.00;99.90
47604;DHT22;33326;51.116;6.900;2023-03-31T12:59:45;15.00;99.90
47604;DHT22;33326;51.116;6.900;2023-03-31T13:04:47;15.10;99.90
47604;DHT22;33326;51.116;6.900;2023-03-31T13:09:58;15.20;99.90
47604;DHT22;33326;51.116;6.900;2023-03-31T13:15:03;15.30;99.90
47604;DHT22;33326;51.116;6.900;2023-03-31T13:20:34;15.10;99.90
47604;DHT22;33326;51.116;6.900;2023-03-31T13:25:45;14.90;99.90
47604;DHT22;33326;51.116;6.900;2023-03-31T13:30:57;14.90;99.90
47604;DHT22;33326;51.116;6.900;2023-03-31T13:36:29;15.00;99.90
47604;DHT22;33326;51.116;6.900;2023-03-31T13:41:44;15.40;99.90
47604;DHT22;33326;51.116;6.900;2023-03-31T13:47:13;16.20;99.90
47604;DHT22;33326;51.116;6.900;2023-03-31T13:52:24;17.20;99.90
47604;DHT22;33326;51.116;6.900;2023-03-31T14:03:15;16.00;99.90
47604;DHT22;33326;51.116;6.900;2023-03-31T14:08:22;16.20;99.90
47604;DHT22;33326;51.116;6.900;2023-03-31T14:13:30;16.10;99.90
47604;DHT22;33326;51.116;6.900;2023-03-31T14:18:38;15.80;99.90
47604;DHT22;33326;51.116;6.900;2023-03-31T14:23:50;15.70;99.90
47604;DHT22;33326;51.116;6.900;2023-03-31T14:29:03;15.50;99.90
47604;DHT22;33326;51.116;6.900;2023-03-31T14:34:37;15.40;99.90
47604;DHT22;33326;51.116;6.900;2023-03-31T14:39:43;15.20;99.90
47604;DHT22;33326;51.116;6.900;2023-03-31T14:44:47;15.20;99.90
47604;DHT22;33326;51.116;6.900;2023-03-31T14:49:59;15.10;99.90
47604;DHT22;33326;51.116;6.900;2023-03-31T14:55:02;15.10;99.90
47604;DHT22;33326;51.116;6.900;2023-03-31T15:00:07;15.00;99.90
47604;DHT22;33326;51.116;6.900;2023-03-31T15:05:21;15.00;99.90
47604;DHT22;33326;51.116;6.900;2023-03-31T15:10:24;14.90;99.90
47604;DHT22;33326;51.116;6.900;2023-03-31T15:15:32;14.80;99.90
47604;DHT22;33326;51.116;6.900;2023-03-31T15:20:37;14.60;99.90
47604;DHT22;33326;51.116;6.900;2023-03-31T15:25:42;13.80;99.90
47604;DHT22;33326;51.116;6.900;2023-03-31T15:30:47;12.60;99.90
47604;DHT22;33326;51.116;6.900;2023-03-31T15:35:52;11.90;99.90
47604;DHT22;33326;51.116;6.900;2023-03-31T15:40:55;11.70;99.90
47604;DHT22;33326;51.116;6.900;2023-03-31T15:45:58;11.80;99.90
47604;DHT22;33326;51.116;6.900;2023-03-31T15:51:06;12.00;99.90
47604;DHT22;33326;51.116;6.900;2023-03-31T15:56:23;12.20;99.90
47604;DHT22;33326;51.116;6.900;2023-03-31T16:01:28;12.20;99.90
47604;DHT22;33326;51.116;6.900;2023-03-31T16:06:40;12.30;99.90
47604;DHT22;33326;51.116;6.900;2023-03-31T16:11:46;12.20;99.90
47604;DHT22;33326;51.116;6.900;2023-03-31T16:16:54;12.20;99.90
47604;DHT22;33326;51.116;6.900;2023-03-31T16:22:00;12.40;99.90
47604;DHT22;33326;51.116;6.900;2023-03-31T16:27:05;12.50;99.90
47604;DHT22;33326;51.116;6.900;2023-03-31T16:32:11;12.50;99.90
47604;DHT22;33326;51.116;6.900;2023-03-31T16:37:15;12.60;99.90
47604;DHT22;33326;51.116;6.900;2023-03-31T16:42:17;12.70;99.90
47604;DHT22;33326;51.116;6.900;2023-03-31T16:47:19;12.70;99.90
47604;DHT22;33326;51.116;6.900;2023-03-31T16:52:23;12.70;99.90
47604;DHT22;33326;51.116;6.900;2023-03-31T16:57:25;12.80;99.90
47604;DHT22;33326;51.116;6.900;2023-03-31T17:02:27;12.70;99.90
47604;DHT22;33326;51.116;6.900;2023-03-31T17:07:30;12.60;99.90
47604;DHT22;33326;51.116;6.900;2023-03-31T17:12:32;12.60;99.90
47604;DHT22;33326;51.116;6.900;2023-03-31T17:17:34;12.70;99.90
47604;DHT22;33326;51.116;6.900;2023-03-31T17:22:38;12.60;99.90
47604;DHT22;33326;51.116;6.900;2023-03-31T17:27:40;12.60;99.90
47604;DHT22;33326;51.116;6.900;2023-03-31T17:32:43;12.60;99.90
47604;DHT22;33326;51.116;6.900;2023-03-31T17:37:47;12.50;99.90
47604;DHT22;33326;51.116;6.900;2023-03-31T17:42:52;12.60;99.90
47604;DHT22;33326;51.116;6.900;2023-03-31T17:47:54;12.70;99.90
47604;DHT22;33326;51.116;6.900;2023-03-31T17:52:59;12.50;99.90
47604;DHT22;33326;51.116;6.900;2023-03-31T17:58:01;12.40;99.90
47604;DHT22;33326;51.116;6.900;2023-03-31T18:03:03;12.20;99.90
47604;DHT22;33326;51.116;6.900;2023-03-31T18:08:07;12.30;99.90
47604;DHT22;33326;51.116;6.900;2023-03-31T18:13:10;12.10;99.90
47604;DHT22;33326;51.116;6.900;2023-03-31T18:18:12;12.10;99.90
47604;DHT22;33326;51.116;6.900;2023-03-31T18:23:15;12.20;99.90
47604;DHT22;33326;51.116;6.900;2023-03-31T18:28:17;12.20;99.90
47604;DHT22;33326;51.116;6.900;2023-03-31T18:33:20;12.30;99.90
47604;DHT22;33326;51.116;6.900;2023-03-31T18:38:24;12.20;99.90
47604;DHT22;33326;51.116;6.900;2023-03-31T18:43:26;12.20;99.90
47604;DHT22;33326;51.116;6.900;2023-03-31T18:48:29;12.20;99.90
47604;DHT22;33326;51.116;6.900;2023-03-31T18:53:32;12.10;99.90
47604;DHT22;33326;51.116;6.900;2023-03-31T18:58:37;12.20;99.90
47604;DHT22;33326;51.116;6.900;2023-03-31T19:03:42;12.10;99.90
47604;DHT22;33326;51.116;6.900;2023-03-31T19:08:46;12.00;99.90
47604;DHT22;33326;51.116;6.900;2023-03-31T19:13:48;12.00;99.90
47604;DHT22;33326;51.116;6.900;2023-03-31T19:18:52;12.00;99.90
47604;DHT22;33326;51.116;6.900;2023-03-31T19:23:56;12.00;99.90
47604;DHT22;33326;51.116;6.900;2023-03-31T19:28:57;11.90;99.90
47604;DHT22;33326;51.116;6.900;2023-03-31T19:33:59;11.80;99.90
47604;DHT22;33326;51.116;6.900;2023-03-31T19:39:03;11.70;99.90
47604;DHT22;33326;51.116;6.900;2023-03-31T19:44:06;11.60;99.90
47604;DHT22;33326;51.116;6.900;2023-03-31T19:49:08;11.70;99.90
47604;DHT22;33326;51.116;6.900;2023-03-31T19:54:12;11.70;99.90
47604;DHT22;33326;51.116;6.900;2023-03-31T19:59:13;11.70;99.90
47604;DHT22;33326;51.116;6.900;2023-03-31T20:04:16;11.70;99.90
47604;DHT22;33326;51.116;6.900;2023-03-31T20:09:22;11.70;99.90
47604;DHT22;33326;51.116;6.900;2023-03-31T20:14:26;11.50;99.90
47604;DHT22;33326;51.116;6.900;2023-03-31T20:19:29;11.50;99.90
47604;DHT22;33326;51.116;6.900;2023-03-31T20:24:32;11.50;99.90
47604;DHT22;33326;51.116;6.900;2023-03-31T20:29:34;11.40;99.90
47604;DHT22;33326;51.116;6.900;2023-03-31T20:34:36;11.20;99.90
47604;DHT22;33326;51.116;6.900;2023-03-31T20:39:40;11.20;99.90
47604;DHT22;33326;51.116;6.900;2023-03-31T20:44:44;11.20;99.90
47604;DHT22;33326;51.116;6.900;2023-03-31T20:49:46;11.10;99.90
47604;DHT22;33326;51.116;6.900;2023-03-31T20:54:50;11.10;99.90
47604;DHT22;33326;51.116;6.900;2023-03-31T20:59:52;11.00;99.90
47604;DHT22;33326;51.116;6.900;2023-03-31T21:04:54;10.90;99.90
47604;DHT22;33326;51.116;6.900;2023-03-31T21:09:58;11.00;99.90
47604;DHT22;33326;51.116;6.900;2023-03-31T21:15:01;11.10;99.90
47604;DHT22;33326;51.116;6.900;2023-03-31T21:20:03;11.10;99.90
47604;DHT22;33326;51.116;6.900;2023-03-31T21:25:08;11.20;99.90
47604;DHT22;33326;51.116;6.900;2023-03-31T21:30:12;11.20;99.90
47604;DHT22;33326;51.116;6.900;2023-03-31T21:35:15;11.20;99.90
47604;DHT22;33326;51.116;6.900;2023-03-31T21:40:19;11.20;99.90
47604;DHT22;33326;51.116;6.900;2023-03-31T21:45:21;11.30;99.90
47604;DHT22;33326;51.116;6.900;2023-03-31T21:50:23;11.30;99.90
47604;DHT22;33326;51.116;6.900;2023-03-31T21:55:27;11.30;99.90
47604;DHT22;33326;51.116;6.900;2023-03-31T22:00:29;11.30;99.90
47604;DHT22;33326;51.116;6.900;2023-03-31T22:05:31;11.30;99.90
47604;DHT22;33326;51.116;6.900;2023-03-31T22:10:34;11.30;99.90
47604;DHT22;33326;51.116;6.900;2023-03-31T22:15:39;11.40;99.90
47604;DHT22;33326;51.116;6.900;2023-03-31T22:20:42;11.30;99.90
47604;DHT22;33326;51.116;6.900;2023-03-31T22:25:45;11.10;99.90
47604;DHT22;33326;51.116;6.900;2023-03-31T22:30:47;11.00;99.90
47604;DHT22;33326;51.116;6.900;2023-03-31T22:35:50;10.90;99.90
47604;DHT22;33326;51.116;6.900;2023-03-31T22:40:53;10.90;99.90
47604;DHT22;33326;51.116;6.900;2023-03-31T22:45:55;10.80;99.90
47604;DHT22;33326;51.116;6.900;2023-03-31T22:50:57;10.70;99.90
47604;DHT22;33326;51.116;6.900;2023-03-31T22:56:04;10.70;99.90
47604;DHT22;33326;51.116;6.900;2023-03-31T23:01:07;10.80;99.90
47604;DHT22;33326;51.116;6.900;2023-03-31T23:06:14;10.80;99.90
47604;DHT22;33326;51.116;6.900;2023-03-31T23:11:17;10.70;99.90
47604;DHT22;33326;51.116;6.900;2023-03-31T23:16:21;10.70;99.90
47604;DHT22;33326;51.116;6.900;2023-03-31T23:21:24;10.70;99.90
47604;DHT22;33326;51.116;6.900;2023-03-31T23:26:30;10.60;99.90
47604;DHT22;33326;51.116;6.900;2023-03-31T23:31:32;10.70;99.90
47604;DHT22;33326;51.116;6.900;2023-03-31T23:36:34;10.80;99.90
47604;DHT22;33326;51.116;6.900;2023-03-31T23:41:37;10.80;99.90
47604;DHT22;33326;51.116;6.900;2023-03-31T23:46:39;10.90;99.90
47604;DHT22;33326;51.116;6.900;2023-03-31T23:51:43;10.70;99.90
47604;DHT22;33326;51.116;6.900;2023-03-31T23:56:47;10.70;99.90
